createdAt,value
2022-09-28T00:00:58.593Z,30.33
2022-09-28T00:03:28.093Z,27.73
2022-09-28T00:06:02.087Z,24.38
2022-09-28T00:08:29.888Z,25.17
2022-09-28T00:10:59.302Z,25.40
2022-09-28T00:13:28.178Z,24.42
2022-09-28T00:16:04.461Z,32.33
2022-09-28T00:18:33.638Z,24.02
2022-09-28T00:21:03.452Z,24.87
2022-09-28T00:23:31.957Z,30.52
2022-09-28T00:26:04.649Z,27.17
2022-09-28T00:28:32.703Z,26.48
2022-09-28T00:31:00.896Z,27.77
2022-09-28T00:33:28.603Z,23.47
2022-09-28T00:35:58.020Z,26.45
2022-09-28T00:38:28.493Z,31.10
2022-09-28T00:40:56.854Z,28.13
2022-09-28T00:43:29.439Z,27.33
2022-09-28T00:46:00.453Z,34.92
2022-09-28T00:48:31.426Z,37.75
2022-09-28T00:50:59.636Z,31.02
2022-09-28T00:53:31.703Z,38.42
2022-09-28T00:56:01.013Z,33.47
2022-09-28T00:58:31.704Z,33.50
2022-09-28T01:01:00.432Z,40.55
2022-09-28T01:03:29.683Z,40.03
2022-09-28T01:05:59.780Z,36.88
2022-09-28T01:08:29.259Z,40.50
2022-09-28T01:10:57.464Z,36.08
2022-09-28T01:13:25.699Z,39.50
2022-09-28T01:16:00.768Z,37.80
2022-09-28T01:18:34.295Z,41.75
2022-09-28T01:21:03.341Z,44.13
2022-09-28T01:24:00.187Z,42.67
2022-09-28T01:27:00.647Z,37.35
2022-09-28T01:29:35.879Z,40.22
2022-09-28T01:32:12.798Z,38.95
2022-09-28T01:34:43.877Z,37.27
2022-09-28T01:37:12.971Z,42.38
2022-09-28T01:39:43.165Z,34.58
2022-09-28T01:42:16.642Z,40.70
2022-09-28T01:44:46.457Z,36.85
2022-09-28T01:47:16.714Z,29.25
2022-09-28T01:49:47.449Z,32.88
2022-09-28T01:52:17.578Z,35.63
2022-09-28T01:54:48.796Z,35.80
2022-09-28T01:57:20.268Z,31.20
2022-09-28T01:59:59.731Z,36.43
2022-09-28T02:02:32.627Z,31.05
2022-09-28T02:05:04.576Z,31.60
2022-09-28T02:07:36.043Z,32.20
2022-09-28T02:10:09.776Z,31.38
2022-09-28T02:12:40.553Z,32.75
2022-09-28T02:15:13.364Z,30.30
2022-09-28T02:17:41.646Z,32.05
2022-09-28T02:20:10.055Z,27.10
2022-09-28T02:22:42.991Z,24.00
2022-09-28T02:25:12.997Z,25.13
2022-09-28T02:27:45.008Z,28.97
2022-09-28T02:30:13.524Z,25.63
2022-09-28T02:32:43.625Z,25.60
2022-09-28T02:35:15.955Z,26.80
2022-09-28T02:37:44.655Z,21.70
2022-09-28T02:40:16.395Z,26.95
2022-09-28T02:42:54.364Z,30.17
2022-09-28T02:45:31.242Z,27.25
2022-09-28T02:48:06.673Z,22.40
2022-09-28T02:50:41.472Z,23.35
2022-09-28T02:53:29.089Z,26.10
2022-09-28T02:56:11.293Z,23.20
2022-09-28T02:58:50.838Z,21.20
2022-09-28T03:01:31.271Z,27.20
2022-09-28T03:04:02.473Z,23.80
2022-09-28T03:06:34.056Z,19.83
2022-09-28T03:09:06.490Z,22.65
2022-09-28T03:11:36.453Z,22.25
2022-09-28T03:14:06.088Z,24.85
2022-09-28T03:16:33.933Z,22.60
2022-09-28T03:19:01.728Z,23.98
2022-09-28T03:21:29.588Z,22.83
2022-09-28T03:23:57.843Z,21.10
2022-09-28T03:26:25.633Z,21.33
2022-09-28T03:28:53.548Z,21.45
2022-09-28T03:31:22.653Z,22.15
2022-09-28T03:33:52.483Z,22.20
2022-09-28T03:36:20.937Z,21.02
2022-09-28T03:38:49.118Z,19.13
2022-09-28T03:41:17.741Z,22.73
2022-09-28T03:43:45.501Z,18.95
2022-09-28T03:46:13.200Z,21.58
2022-09-28T03:48:42.698Z,24.58
2022-09-28T03:51:11.732Z,25.58
2022-09-28T03:53:40.515Z,20.70
2022-09-28T03:56:10.190Z,23.15
2022-09-28T03:58:39.023Z,25.40
2022-09-28T04:01:14.162Z,23.65
2022-09-28T04:03:46.737Z,28.17
2022-09-28T04:06:15.312Z,28.00
2022-09-28T04:08:43.481Z,24.95
2022-09-28T04:11:11.397Z,25.50
2022-09-28T04:13:39.297Z,27.23
2022-09-28T04:16:07.354Z,22.95
2022-09-28T04:18:35.622Z,27.00
2022-09-28T04:21:07.820Z,22.40
2022-09-28T04:23:36.541Z,25.10
2022-09-28T04:26:04.501Z,27.33
2022-09-28T04:28:49.398Z,28.33
2022-09-28T04:31:19.250Z,27.35
2022-09-28T04:33:47.219Z,27.92
2022-09-28T04:36:16.363Z,25.15
2022-09-28T04:38:59.362Z,25.58
2022-09-28T04:41:27.348Z,27.90
2022-09-28T04:43:54.989Z,29.15
2022-09-28T04:46:22.727Z,31.85
2022-09-28T04:48:50.595Z,32.22
2022-09-28T04:51:20.568Z,29.70
2022-09-28T04:53:48.342Z,29.60
2022-09-28T04:56:16.671Z,36.67
2022-09-28T04:58:50.304Z,30.70
2022-09-28T05:01:21.187Z,33.93
2022-09-28T05:03:49.144Z,35.90
2022-09-28T05:06:17.100Z,28.92
2022-09-28T05:08:47.397Z,29.70
2022-09-28T05:11:16.101Z,26.40
2022-09-28T05:13:46.209Z,30.52
2022-09-28T05:16:15.958Z,29.80
2022-09-28T05:18:43.916Z,35.93
2022-09-28T05:21:13.135Z,33.15
2022-09-28T05:23:40.859Z,28.10
2022-09-28T05:26:09.965Z,30.70
2022-09-28T05:28:37.854Z,30.47
2022-09-28T05:31:06.585Z,30.90
2022-09-28T05:33:35.161Z,27.50
2022-09-28T05:36:03.508Z,27.80
2022-09-28T05:38:32.308Z,29.92
2022-09-28T05:41:04.350Z,30.55
2022-09-28T05:43:36.316Z,30.23
2022-09-28T05:46:04.091Z,28.15
2022-09-28T05:48:31.883Z,28.95
2022-09-28T05:50:59.822Z,31.83
2022-09-28T05:53:28.410Z,27.35
2022-09-28T05:55:58.975Z,28.10
2022-09-28T05:58:27.308Z,24.77
2022-09-28T06:00:57.698Z,26.90
2022-09-28T06:03:26.372Z,28.00
2022-09-28T06:05:54.739Z,27.92
2022-09-28T06:08:22.536Z,26.05
2022-09-28T06:10:50.267Z,31.60
2022-09-28T06:13:17.961Z,28.55
2022-09-28T06:15:46.425Z,28.93
2022-09-28T06:18:15.941Z,30.80
2022-09-28T06:20:44.340Z,29.65
2022-09-28T06:23:14.245Z,30.65
2022-09-28T06:25:42.421Z,31.05
2022-09-28T06:28:11.712Z,29.47
2022-09-28T06:30:39.520Z,27.60
2022-09-28T06:33:08.537Z,29.95
2022-09-28T06:35:37.632Z,29.48
2022-09-28T06:38:05.364Z,30.38
2022-09-28T06:40:34.327Z,28.30
2022-09-28T06:43:03.560Z,24.52
2022-09-28T06:45:31.873Z,26.85
2022-09-28T06:48:00.853Z,24.45
2022-09-28T06:50:32.166Z,24.70
2022-09-28T06:53:02.117Z,28.23
2022-09-28T06:55:30.320Z,26.13
2022-09-28T06:57:59.364Z,28.67
2022-09-28T07:00:27.866Z,27.63
2022-09-28T07:02:55.602Z,31.50
2022-09-28T07:05:24.223Z,26.55
2022-09-28T07:07:54.451Z,26.70
2022-09-28T07:10:24.370Z,24.63
2022-09-28T07:12:52.596Z,27.45
2022-09-28T07:15:22.852Z,28.40
2022-09-28T07:18:00.466Z,25.98
2022-09-28T07:20:30.745Z,28.13
2022-09-28T07:23:11.939Z,29.75
2022-09-28T07:25:48.042Z,25.60
2022-09-28T07:28:16.507Z,29.50
2022-09-28T07:30:45.357Z,26.05
2022-09-28T07:33:16.029Z,23.73
2022-09-28T07:35:52.001Z,23.40
2022-09-28T07:38:20.545Z,24.77
2022-09-28T07:41:07.622Z,25.08
2022-09-28T07:43:35.417Z,21.48
2022-09-28T07:46:03.329Z,22.08
2022-09-28T07:48:36.638Z,20.42
2022-09-28T07:51:05.119Z,22.85
2022-09-28T07:53:33.284Z,22.00
2022-09-28T07:56:07.246Z,18.35
2022-09-28T07:58:36.542Z,17.38
2022-09-28T08:01:06.931Z,13.27
2022-09-28T08:03:35.707Z,16.85
2022-09-28T08:06:05.226Z,13.77
2022-09-28T08:08:34.621Z,15.25
2022-09-28T08:11:04.461Z,13.27
2022-09-28T08:13:32.132Z,15.50
2022-09-28T08:16:02.789Z,13.33
2022-09-28T08:18:31.247Z,12.88
2022-09-28T08:21:17.506Z,13.68
2022-09-28T08:23:45.204Z,14.15
2022-09-28T08:26:15.659Z,13.88
2022-09-28T08:28:45.003Z,14.45
2022-09-28T08:31:12.882Z,13.65
2022-09-28T08:33:42.028Z,12.05
2022-09-28T08:36:11.324Z,13.60
2022-09-28T08:38:39.165Z,12.47
2022-09-28T08:41:18.097Z,11.27
2022-09-28T08:44:16.824Z,13.70
2022-09-28T08:46:47.695Z,13.18
2022-09-28T08:49:25.365Z,11.50
2022-09-28T08:51:57.438Z,13.05
2022-09-28T08:54:35.157Z,13.48
2022-09-28T08:57:06.816Z,11.18
2022-09-28T08:59:44.712Z,12.18
2022-09-28T09:02:17.043Z,12.10
2022-09-28T09:04:45.048Z,12.50
2022-09-28T09:07:22.562Z,10.80
2022-09-28T09:09:59.391Z,10.35
2022-09-28T09:12:34.832Z,12.80
2022-09-28T09:15:13.110Z,11.47
2022-09-28T09:17:49.820Z,12.60
2022-09-28T09:20:20.552Z,13.35
2022-09-28T09:22:59.390Z,11.60
2022-09-28T09:25:29.489Z,12.95
2022-09-28T09:28:26.376Z,14.82
2022-09-28T09:31:03.393Z,11.90
2022-09-28T09:33:53.461Z,9.18
2022-09-28T09:36:32.084Z,9.95
2022-09-28T09:39:22.753Z,10.97
2022-09-28T09:42:04.036Z,14.20
2022-09-28T09:44:52.328Z,10.98
2022-09-28T09:47:22.413Z,11.73
2022-09-28T09:49:52.554Z,11.25
2022-09-28T09:52:23.591Z,10.70
2022-09-28T09:54:56.162Z,11.73
2022-09-28T09:57:30.824Z,10.10
2022-09-28T10:00:01.907Z,12.75
2022-09-28T10:02:32.091Z,11.52
2022-09-28T10:05:03.660Z,13.30
2022-09-28T10:07:43.221Z,11.80
2022-09-28T10:10:13.931Z,9.55
2022-09-28T10:12:43.107Z,10.93
2022-09-28T10:15:24.326Z,9.80
2022-09-28T10:17:52.728Z,9.68
2022-09-28T10:20:20.706Z,8.00
2022-09-28T10:22:48.784Z,9.82
2022-09-28T10:25:17.039Z,9.00
2022-09-28T10:27:46.744Z,9.97
2022-09-28T10:30:19.318Z,7.97
2022-09-28T10:32:48.887Z,10.45
2022-09-28T10:35:25.410Z,11.23
2022-09-28T10:37:57.258Z,11.52
2022-09-28T10:40:40.506Z,8.13
2022-09-28T10:43:18.796Z,9.63
2022-09-28T10:45:47.857Z,9.57
2022-09-28T10:48:21.734Z,10.27
2022-09-28T10:50:59.898Z,8.68
2022-09-28T10:53:28.328Z,7.18
2022-09-28T10:56:01.594Z,8.77
2022-09-28T10:58:34.239Z,7.50
2022-09-28T11:01:08.506Z,6.88
2022-09-28T11:03:42.971Z,9.38
2022-09-28T11:06:10.871Z,8.70
2022-09-28T11:08:40.721Z,6.00
2022-09-28T11:11:11.146Z,7.38
2022-09-28T11:13:41.174Z,7.93
2022-09-28T11:16:21.202Z,6.45
2022-09-28T11:18:49.039Z,6.43
2022-09-28T11:21:18.316Z,5.80
2022-09-28T11:23:57.724Z,8.70
2022-09-28T11:26:26.111Z,5.18
2022-09-28T11:28:54.296Z,7.80
2022-09-28T11:31:29.097Z,8.93
2022-09-28T11:34:13.555Z,7.05
2022-09-28T11:37:08.707Z,6.80
2022-09-28T11:39:42.413Z,8.40
2022-09-28T11:42:19.574Z,5.53
2022-09-28T11:44:48.054Z,5.03
2022-09-28T11:47:42.735Z,4.30
2022-09-28T11:50:24.180Z,6.00
2022-09-28T11:52:58.476Z,6.70
2022-09-28T11:55:30.894Z,9.18
2022-09-28T11:58:03.820Z,8.32
2022-09-28T12:00:32.596Z,8.65
2022-09-28T12:03:08.558Z,7.28
2022-09-28T12:05:41.519Z,9.65
2022-09-28T12:08:15.727Z,6.95
2022-09-28T12:10:48.982Z,7.35
2022-09-28T12:13:20.316Z,7.13
2022-09-28T12:16:20.090Z,6.75
2022-09-28T12:18:48.421Z,7.35
2022-09-28T12:21:28.362Z,5.53
2022-09-28T12:23:59.339Z,13.17
2022-09-28T12:26:34.616Z,8.82
2022-09-28T12:29:11.485Z,5.63
2022-09-28T12:31:42.039Z,5.15
2022-09-28T12:34:11.541Z,4.97
2022-09-28T12:36:47.575Z,3.92
2022-09-28T12:39:41.202Z,4.60
2022-09-28T12:42:32.227Z,3.20
2022-09-28T12:45:13.692Z,7.68
2022-09-28T12:48:01.997Z,3.88
2022-09-28T12:50:39.381Z,4.75
2022-09-28T12:53:23.448Z,3.83
2022-09-28T12:55:56.196Z,3.10
2022-09-28T12:58:36.647Z,5.55
2022-09-28T13:01:18.138Z,6.07
2022-09-28T13:04:09.239Z,2.95
2022-09-28T13:07:02.648Z,4.82
2022-09-28T13:09:34.353Z,1.73
2022-09-28T13:12:13.263Z,4.07
2022-09-28T13:15:18.392Z,2.83
2022-09-28T13:18:05.097Z,4.28
2022-09-28T13:20:40.140Z,3.65
2022-09-28T13:23:17.467Z,3.40
2022-09-28T13:25:50.910Z,3.58
2022-09-28T13:28:26.238Z,2.97
2022-09-28T13:30:56.633Z,4.60
2022-09-28T13:33:35.549Z,2.25
2022-09-28T13:36:05.604Z,1.75
2022-09-28T13:38:52.822Z,3.05
2022-09-28T13:41:28.985Z,2.53
2022-09-28T13:44:20.951Z,2.30
2022-09-28T13:47:04.461Z,3.00
2022-09-28T13:49:41.045Z,3.55
2022-09-28T13:52:11.354Z,2.53
2022-09-28T13:54:50.777Z,1.30
2022-09-28T13:57:21.544Z,1.73
2022-09-28T13:59:59.170Z,4.00
2022-09-28T14:02:34.027Z,2.17
2022-09-28T14:05:04.393Z,2.97
2022-09-28T14:08:17.194Z,1.90
2022-09-28T14:10:53.730Z,2.03
2022-09-28T14:14:00.050Z,1.38
2022-09-28T14:16:31.241Z,4.10
2022-09-28T14:19:02.856Z,6.75
2022-09-28T14:22:01.856Z,3.85
2022-09-28T14:25:04.488Z,1.95
2022-09-28T14:27:53.740Z,2.13
2022-09-28T14:30:24.055Z,0.65
2022-09-28T14:32:57.942Z,1.35
2022-09-28T14:35:31.353Z,1.43
2022-09-28T14:38:23.588Z,0.93
2022-09-28T14:41:12.871Z,2.08
2022-09-28T14:44:04.616Z,3.40
2022-09-28T14:46:44.158Z,2.55
2022-09-28T14:49:50.483Z,2.20
2022-09-28T14:53:22.614Z,5.68
2022-09-28T14:55:55.403Z,11.77
2022-09-28T14:58:26.813Z,1.60
2022-09-28T15:01:02.808Z,1.48
2022-09-28T15:03:33.145Z,1.90
2022-09-28T15:06:01.868Z,1.77
2022-09-28T15:08:39.681Z,0.82
2022-09-28T15:11:11.505Z,1.73
2022-09-28T15:13:40.764Z,1.23
2022-09-28T15:16:12.662Z,1.00
2022-09-28T15:19:03.313Z,1.70
2022-09-28T15:21:36.378Z,0.70
2022-09-28T15:24:04.644Z,0.90
2022-09-28T15:26:33.805Z,0.90
2022-09-28T15:29:03.978Z,1.50
2022-09-28T15:31:37.022Z,2.03
2022-09-28T15:34:22.195Z,1.07
2022-09-28T15:36:50.316Z,1.10
2022-09-28T15:39:22.161Z,1.67
2022-09-28T15:41:51.791Z,3.10
2022-09-28T15:44:38.964Z,1.60
2022-09-28T15:47:13.742Z,2.20
2022-09-28T15:49:45.367Z,3.90
2022-09-28T15:52:26.475Z,3.30
2022-09-28T15:55:58.777Z,1.50
2022-09-28T15:58:27.330Z,2.22
2022-09-28T16:01:26.269Z,1.02
2022-09-28T16:03:56.658Z,3.80
2022-09-28T16:06:25.073Z,2.85
2022-09-28T16:08:53.841Z,2.10
2022-09-28T16:11:24.164Z,1.17
2022-09-28T16:13:57.481Z,2.03
2022-09-28T16:16:27.820Z,1.23
2022-09-28T16:19:02.517Z,1.90
2022-09-28T16:21:43.644Z,1.92
2022-09-28T16:24:20.950Z,5.20
2022-09-28T16:26:49.335Z,1.67
2022-09-28T16:29:26.896Z,3.58
2022-09-28T16:31:55.324Z,2.35
2022-09-28T16:34:27.442Z,1.40
2022-09-28T16:36:55.396Z,3.00
2022-09-28T16:39:23.684Z,1.30
2022-09-28T16:41:54.975Z,1.45
2022-09-28T16:44:29.837Z,1.58
2022-09-28T16:47:00.329Z,2.00
2022-09-28T16:49:36.918Z,2.60
2022-09-28T16:52:04.679Z,5.25
2022-09-28T16:54:49.964Z,2.33
2022-09-28T16:57:17.878Z,2.33
2022-09-28T16:59:49.517Z,2.65
2022-09-28T17:02:42.285Z,3.05
2022-09-28T17:05:08.450Z,3.80
2022-09-28T17:07:36.273Z,3.70
2022-09-28T17:10:13.410Z,3.63
2022-09-28T17:12:41.883Z,2.33
2022-09-28T17:15:10.016Z,2.85
2022-09-28T17:17:39.248Z,4.37
2022-09-28T17:20:17.338Z,4.07
2022-09-28T17:22:45.833Z,4.28
2022-09-28T17:25:14.598Z,3.70
2022-09-28T17:27:45.208Z,3.88
2022-09-28T17:30:14.820Z,3.15
2022-09-28T17:32:45.019Z,4.85
2022-09-28T17:35:24.753Z,2.73
2022-09-28T17:37:53.330Z,3.75
2022-09-28T17:40:23.738Z,5.30
2022-09-28T17:42:54.998Z,4.67
2022-09-28T17:45:23.392Z,3.50
2022-09-28T17:47:51.584Z,7.10
2022-09-28T17:50:23.591Z,4.40
2022-09-28T17:53:06.147Z,3.90
2022-09-28T17:55:36.346Z,3.43
2022-09-28T17:58:14.300Z,3.13
2022-09-28T18:00:42.017Z,6.38
2022-09-28T18:03:13.274Z,4.55
2022-09-28T18:05:42.938Z,6.22
2022-09-28T18:08:13.702Z,7.60
2022-09-28T18:10:41.553Z,6.13
2022-09-28T18:13:09.317Z,4.97
2022-09-28T18:15:38.008Z,2.60
2022-09-28T18:18:09.647Z,1.65
2022-09-28T18:20:38.106Z,1.50
2022-09-28T18:23:12.081Z,0.75
2022-09-28T18:25:41.182Z,0.50
2022-09-28T18:28:08.914Z,1.00
2022-09-28T18:30:40.490Z,0.00
2022-09-28T18:33:08.480Z,0.00
2022-09-28T18:35:37.979Z,0.00
2022-09-28T18:38:12.081Z,0.00
2022-09-28T18:40:39.835Z,0.00
2022-09-28T18:43:07.421Z,0.05
2022-09-28T18:45:36.529Z,0.40
2022-09-28T18:48:04.223Z,0.00
2022-09-28T18:50:34.468Z,0.00
2022-09-28T18:53:11.500Z,0.00
2022-09-28T18:55:42.603Z,0.00
2022-09-28T18:58:11.257Z,0.00
2022-09-28T19:00:42.653Z,0.00
2022-09-28T19:03:14.170Z,2.90
2022-09-28T19:05:42.908Z,0.00
2022-09-28T19:08:10.927Z,0.00
2022-09-28T19:10:38.545Z,1.60
2022-09-28T19:13:07.523Z,0.00
2022-09-28T19:15:35.312Z,0.00
2022-09-28T19:18:03.976Z,0.30
2022-09-28T19:20:33.840Z,0.30
2022-09-28T19:23:01.682Z,0.00
2022-09-28T19:25:29.636Z,0.00
2022-09-28T19:27:57.308Z,0.00
2022-09-28T19:30:26.298Z,0.00
2022-09-28T19:32:54.340Z,0.00
2022-09-28T19:35:21.857Z,0.00
2022-09-28T19:37:56.430Z,0.00
2022-09-28T19:40:27.554Z,0.00
2022-09-28T19:42:55.159Z,0.00
2022-09-28T19:45:23.731Z,0.00
2022-09-28T19:47:55.142Z,0.00
2022-09-28T19:50:26.222Z,0.00
2022-09-28T19:52:54.618Z,0.00
2022-09-28T19:55:22.961Z,0.00
2022-09-28T19:57:52.180Z,0.70
2022-09-28T20:00:20.355Z,0.00
2022-09-28T20:02:48.068Z,0.00
2022-09-28T20:05:17.232Z,0.00
2022-09-28T20:07:46.263Z,0.00
2022-09-28T20:10:14.142Z,0.00
2022-09-28T20:12:42.411Z,1.60
2022-09-28T20:15:11.156Z,0.00
2022-09-28T20:17:39.169Z,0.00
2022-09-28T20:20:07.437Z,0.10
2022-09-28T20:22:37.162Z,0.00
2022-09-28T20:25:05.276Z,0.00
2022-09-28T20:27:38.071Z,1.40
2022-09-28T20:30:07.011Z,0.00
2022-09-28T20:32:35.241Z,0.00
2022-09-28T20:35:02.801Z,0.00
2022-09-28T20:37:30.993Z,0.00
2022-09-28T20:40:01.039Z,0.00
2022-09-28T20:42:32.019Z,0.00
2022-09-28T20:45:00.193Z,0.00
2022-09-28T20:47:28.205Z,0.00
2022-09-28T20:49:56.827Z,0.00
2022-09-28T20:52:24.751Z,32.30
2022-09-28T20:54:52.253Z,0.00
2022-09-28T20:57:21.786Z,0.00
2022-09-28T20:59:54.557Z,0.00
2022-09-28T21:02:22.767Z,0.00
2022-09-28T21:04:50.559Z,0.00
2022-09-28T21:07:18.291Z,0.03
2022-09-28T21:09:46.593Z,0.00
2022-09-28T21:12:15.455Z,0.00
2022-09-28T21:14:45.388Z,0.00
2022-09-28T21:17:13.177Z,0.00
2022-09-28T21:19:40.774Z,0.00
2022-09-28T21:22:08.903Z,0.00
2022-09-28T21:24:37.084Z,0.10
2022-09-28T21:27:05.192Z,0.50
2022-09-28T21:29:32.785Z,0.00
2022-09-28T21:32:02.020Z,0.00
2022-09-28T21:34:29.965Z,0.00
2022-09-28T21:36:57.493Z,1.30
2022-09-28T21:39:25.014Z,0.05
2022-09-28T21:41:53.577Z,0.00
2022-09-28T21:44:21.205Z,0.00
2022-09-28T21:46:49.156Z,0.00
2022-09-28T21:49:18.106Z,0.00
2022-09-28T21:51:47.191Z,0.03
2022-09-28T21:54:15.328Z,0.10
2022-09-28T21:56:43.153Z,0.10
2022-09-28T21:59:10.747Z,0.00
2022-09-28T22:01:38.510Z,0.10
2022-09-28T22:04:06.227Z,0.00
2022-09-28T22:06:35.344Z,0.00
2022-09-28T22:09:03.096Z,14.90
2022-09-28T22:11:31.043Z,0.20
2022-09-28T22:14:00.070Z,0.00
2022-09-28T22:16:29.819Z,0.00
2022-09-28T22:18:57.724Z,0.00
2022-09-28T22:21:27.069Z,0.00
2022-09-28T22:24:01.089Z,0.00
2022-09-28T22:26:29.966Z,1.10
2022-09-28T22:28:59.431Z,0.00
2022-09-28T22:31:29.418Z,0.00
2022-09-28T22:33:57.377Z,0.00
2022-09-28T22:36:25.808Z,0.00
2022-09-28T22:38:54.872Z,0.00
2022-09-28T22:41:24.868Z,0.00
2022-09-28T22:43:54.471Z,0.05
2022-09-28T22:46:23.666Z,0.00
2022-09-28T22:48:52.522Z,0.00
2022-09-28T22:51:22.075Z,0.00
2022-09-28T22:53:50.100Z,0.00
2022-09-28T22:56:18.943Z,0.00
2022-09-28T22:58:48.625Z,0.00
2022-09-28T23:01:18.423Z,0.00
2022-09-28T23:03:46.658Z,0.00
2022-09-28T23:06:16.086Z,0.70
2022-09-28T23:08:44.571Z,0.08
2022-09-28T23:11:12.452Z,0.10
2022-09-28T23:13:41.041Z,0.00
2022-09-28T23:16:14.644Z,0.17
2022-09-28T23:18:42.790Z,0.90
2022-09-28T23:21:12.424Z,1.00
2022-09-28T23:23:40.214Z,2.00
2022-09-28T23:26:14.191Z,0.90
2022-09-28T23:28:42.437Z,1.10
2022-09-28T23:31:13.827Z,0.08
2022-09-28T23:33:41.608Z,0.00
2022-09-28T23:36:10.052Z,0.00
2022-09-28T23:38:37.852Z,0.90
2022-09-28T23:41:05.788Z,0.03
2022-09-28T23:43:33.566Z,0.00
2022-09-28T23:46:01.467Z,0.45
2022-09-28T23:48:30.850Z,0.03
2022-09-28T23:50:59.162Z,0.00
2022-09-28T23:53:26.816Z,0.25
2022-09-28T23:55:54.375Z,1.50
2022-09-28T23:58:22.469Z,0.00
